createdAt,value
2023-03-21T00:00:41.130Z,4.53
2023-03-21T00:03:08.973Z,3.77
2023-03-21T00:05:40.328Z,4.40
2023-03-21T00:08:07.196Z,5.73
2023-03-21T00:10:42.138Z,4.07
2023-03-21T00:13:15.209Z,3.53
2023-03-21T00:16:05.333Z,4.57
2023-03-21T00:18:46.529Z,4.07
2023-03-21T00:21:44.023Z,3.67
2023-03-21T00:24:02.237Z,3.87
2023-03-21T00:26:28.848Z,4.07
2023-03-21T00:28:55.473Z,4.03
2023-03-21T00:31:22.130Z,4.00
2023-03-21T00:33:48.607Z,3.90
2023-03-21T00:36:16.020Z,4.07
2023-03-21T00:38:42.912Z,4.87
2023-03-21T00:41:23.224Z,4.30
2023-03-21T00:43:55.503Z,4.20
2023-03-21T00:46:25.223Z,4.37
2023-03-21T00:48:52.022Z,4.40
2023-03-21T00:51:26.364Z,5.17
2023-03-21T00:53:58.047Z,4.30
2023-03-21T00:56:24.635Z,4.43
2023-03-21T00:58:51.238Z,4.90
2023-03-21T01:01:18.302Z,4.90
2023-03-21T01:03:51.003Z,5.13
2023-03-21T01:06:19.552Z,4.93
2023-03-21T01:08:52.533Z,4.50
2023-03-21T01:11:25.294Z,5.87
2023-03-21T01:13:59.605Z,5.20
2023-03-21T01:16:31.744Z,4.60
2023-03-21T01:18:59.585Z,4.30
2023-03-21T01:21:26.406Z,4.67
2023-03-21T01:23:52.898Z,4.47
2023-03-21T01:26:19.423Z,5.23
2023-03-21T01:28:46.232Z,4.47
2023-03-21T01:31:15.395Z,4.70
2023-03-21T01:33:42.361Z,4.80
2023-03-21T01:36:14.514Z,5.13
2023-03-21T01:38:42.604Z,4.87
2023-03-21T01:41:33.529Z,5.40
2023-03-21T01:44:07.596Z,5.10
2023-03-21T01:46:49.331Z,5.17
2023-03-21T01:49:35.101Z,4.70
2023-03-21T01:52:13.997Z,5.40
2023-03-21T01:54:43.169Z,5.43
2023-03-21T01:57:14.479Z,5.00
2023-03-21T01:59:44.108Z,5.80
2023-03-21T02:02:17.944Z,5.77
2023-03-21T02:04:55.853Z,6.67
2023-03-21T02:07:28.834Z,5.77
2023-03-21T02:09:56.392Z,6.40
2023-03-21T02:12:23.257Z,5.77
2023-03-21T02:14:51.783Z,7.10
2023-03-21T02:17:36.624Z,5.87
2023-03-21T02:20:22.000Z,6.67
2023-03-21T02:23:23.872Z,6.70
2023-03-21T02:26:11.394Z,7.03
2023-03-21T02:29:03.733Z,6.90
2023-03-21T02:32:17.914Z,7.70
2023-03-21T02:35:09.585Z,7.50
2023-03-21T02:37:46.807Z,6.33
2023-03-21T02:40:25.566Z,6.93
2023-03-21T02:43:01.461Z,6.70
2023-03-21T02:45:47.830Z,7.40
2023-03-21T02:48:29.385Z,6.80
2023-03-21T02:51:00.650Z,6.20
2023-03-21T02:53:33.760Z,6.63
2023-03-21T02:56:02.189Z,7.30
2023-03-21T02:58:31.974Z,6.03
2023-03-21T03:00:58.505Z,6.90
2023-03-21T03:03:33.871Z,6.03
2023-03-21T03:06:03.308Z,6.23
2023-03-21T03:08:41.372Z,6.60
2023-03-21T03:11:28.746Z,7.47
2023-03-21T03:14:21.161Z,6.50
2023-03-21T03:17:17.249Z,6.33
2023-03-21T03:19:55.149Z,6.30
2023-03-21T03:22:31.904Z,5.50
2023-03-21T03:25:19.533Z,6.43
2023-03-21T03:27:52.888Z,5.63
2023-03-21T03:30:19.696Z,6.00
2023-03-21T03:32:56.515Z,5.50
2023-03-21T03:35:24.531Z,6.80
2023-03-21T03:37:56.561Z,5.87
2023-03-21T03:40:36.265Z,5.80
2023-03-21T03:43:11.331Z,6.13
2023-03-21T03:45:47.429Z,5.60
2023-03-21T03:48:17.489Z,5.67
2023-03-21T03:51:03.391Z,6.10
2023-03-21T03:53:35.141Z,5.00
2023-03-21T03:56:02.691Z,6.07
2023-03-21T03:58:42.919Z,5.97
2023-03-21T04:01:11.861Z,5.77
2023-03-21T04:03:48.910Z,6.70
2023-03-21T04:06:17.809Z,5.70
2023-03-21T04:08:44.588Z,5.80
2023-03-21T04:11:14.281Z,5.83
2023-03-21T04:13:41.421Z,6.40
2023-03-21T04:16:09.078Z,6.07
2023-03-21T04:18:35.872Z,6.60
2023-03-21T04:21:03.588Z,7.10
2023-03-21T04:23:30.035Z,6.67
2023-03-21T04:25:57.387Z,6.17
2023-03-21T04:28:24.092Z,6.70
2023-03-21T04:31:01.210Z,6.60
2023-03-21T04:33:31.494Z,6.07
2023-03-21T04:35:59.222Z,5.60
2023-03-21T04:38:30.700Z,5.67
2023-03-21T04:40:58.021Z,5.90
2023-03-21T04:43:24.673Z,7.10
2023-03-21T04:45:52.096Z,6.30
2023-03-21T04:48:19.656Z,7.20
2023-03-21T04:50:46.894Z,6.50
2023-03-21T04:53:13.326Z,6.77
2023-03-21T04:55:39.873Z,6.37
2023-03-21T04:58:06.400Z,7.30
2023-03-21T05:00:37.394Z,5.90
2023-03-21T05:03:09.217Z,5.90
2023-03-21T05:05:37.573Z,5.60
2023-03-21T05:08:05.594Z,5.20
2023-03-21T05:10:32.495Z,6.40
2023-03-21T05:12:58.970Z,5.63
2023-03-21T05:15:25.447Z,5.80
2023-03-21T05:17:51.937Z,6.97
2023-03-21T05:20:19.021Z,5.47
2023-03-21T05:22:46.198Z,5.33
2023-03-21T05:25:13.435Z,5.47
2023-03-21T05:27:45.104Z,5.70
2023-03-21T05:30:16.449Z,4.80
2023-03-21T05:32:42.993Z,5.47
2023-03-21T05:35:10.603Z,5.03
2023-03-21T05:37:38.437Z,5.70
2023-03-21T05:40:07.117Z,4.70
2023-03-21T05:42:33.767Z,6.17
2023-03-21T05:45:00.661Z,5.20
2023-03-21T05:47:27.180Z,6.03
2023-03-21T05:49:53.740Z,5.37
2023-03-21T05:52:20.457Z,4.93
2023-03-21T05:54:46.935Z,5.70
2023-03-21T05:57:13.580Z,5.67
2023-03-21T05:59:39.982Z,5.57
2023-03-21T06:02:06.445Z,5.70
2023-03-21T06:04:33.008Z,5.50
2023-03-21T06:06:59.564Z,5.73
2023-03-21T06:09:26.501Z,5.63
2023-03-21T06:11:55.438Z,5.73
2023-03-21T06:14:22.828Z,5.80
2023-03-21T06:16:49.382Z,5.50
2023-03-21T06:19:16.249Z,5.10
2023-03-21T06:21:42.814Z,5.87
2023-03-21T06:24:10.266Z,6.77
2023-03-21T06:26:36.975Z,6.20
2023-03-21T06:29:03.936Z,6.30
2023-03-21T06:31:30.961Z,5.73
2023-03-21T06:33:57.426Z,6.73
2023-03-21T06:36:23.975Z,5.53
2023-03-21T06:38:50.519Z,6.47
2023-03-21T06:41:17.124Z,6.33
2023-03-21T06:43:44.326Z,6.00
2023-03-21T06:46:11.402Z,6.23
2023-03-21T06:48:39.237Z,6.50
2023-03-21T06:51:06.020Z,6.47
2023-03-21T06:53:35.104Z,6.23
2023-03-21T06:56:02.532Z,6.90
2023-03-21T06:58:28.998Z,5.63
2023-03-21T07:00:58.887Z,6.30
2023-03-21T07:03:25.766Z,6.87
2023-03-21T07:05:52.232Z,5.73
2023-03-21T07:08:19.539Z,6.90
2023-03-21T07:10:46.951Z,7.33
2023-03-21T07:13:14.130Z,6.70
2023-03-21T07:15:41.334Z,6.90
2023-03-21T07:18:09.665Z,6.60
2023-03-21T07:20:38.088Z,6.33
2023-03-21T07:23:05.255Z,6.37
2023-03-21T07:25:31.968Z,6.33
2023-03-21T07:27:58.506Z,7.10
2023-03-21T07:30:25.226Z,7.27
2023-03-21T07:32:53.365Z,7.33
2023-03-21T07:35:19.898Z,7.70
2023-03-21T07:37:46.637Z,7.40
2023-03-21T07:40:13.289Z,6.87
2023-03-21T07:42:41.184Z,7.73
2023-03-21T07:45:09.732Z,7.93
2023-03-21T07:47:36.619Z,7.40
2023-03-21T07:50:04.612Z,9.33
2023-03-21T07:52:33.265Z,7.23
2023-03-21T07:55:00.024Z,7.33
2023-03-21T07:57:26.485Z,8.50
2023-03-21T07:59:52.994Z,7.97
2023-03-21T08:02:19.759Z,8.50
2023-03-21T08:04:46.725Z,8.80
2023-03-21T08:07:13.566Z,9.67
2023-03-21T08:09:40.037Z,8.20
2023-03-21T08:12:08.436Z,8.33
2023-03-21T08:14:36.696Z,7.23
2023-03-21T08:17:05.257Z,8.00
2023-03-21T08:19:32.332Z,8.80
2023-03-21T08:22:02.332Z,7.90
2023-03-21T08:24:29.028Z,8.40
2023-03-21T08:26:55.726Z,7.90
2023-03-21T08:29:23.048Z,7.73
2023-03-21T08:31:49.524Z,7.47
2023-03-21T08:34:17.937Z,8.13
2023-03-21T08:36:44.460Z,7.30
2023-03-21T08:39:11.074Z,9.73
2023-03-21T08:41:37.903Z,9.80
2023-03-21T08:44:05.788Z,7.87
2023-03-21T08:46:33.021Z,8.10
2023-03-21T08:48:59.631Z,9.47
2023-03-21T08:51:26.143Z,9.17
2023-03-21T08:53:52.638Z,8.80
2023-03-21T08:56:19.136Z,10.40
2023-03-21T08:58:45.639Z,9.10
2023-03-21T09:01:15.713Z,11.33
2023-03-21T09:03:43.502Z,10.53
2023-03-21T09:06:14.131Z,8.27
2023-03-21T09:08:42.064Z,9.57
2023-03-21T09:11:09.940Z,9.67
2023-03-21T09:13:36.937Z,10.10
2023-03-21T09:16:05.182Z,9.57
2023-03-21T09:18:55.535Z,10.63
2023-03-21T09:21:23.665Z,8.87
2023-03-21T09:23:52.897Z,9.63
2023-03-21T09:26:19.958Z,8.93
2023-03-21T09:28:47.349Z,9.63
2023-03-21T09:31:16.353Z,9.10
2023-03-21T09:33:43.856Z,9.67
2023-03-21T09:36:16.953Z,10.00
2023-03-21T09:38:45.667Z,9.43
2023-03-21T09:41:33.786Z,9.80
2023-03-21T09:44:15.578Z,9.60
2023-03-21T09:46:45.332Z,9.50
2023-03-21T09:49:18.894Z,9.53
2023-03-21T09:51:48.745Z,8.70
2023-03-21T09:54:24.914Z,8.93
2023-03-21T09:56:59.339Z,8.83
2023-03-21T09:59:33.603Z,8.00
2023-03-21T10:02:01.779Z,8.83
2023-03-21T10:04:28.865Z,7.60
2023-03-21T10:07:00.574Z,8.30
2023-03-21T10:09:29.135Z,8.60
2023-03-21T10:12:09.757Z,9.80
2023-03-21T10:14:41.011Z,8.00
2023-03-21T10:17:22.631Z,8.93
2023-03-21T10:20:12.254Z,7.50
2023-03-21T10:22:39.079Z,7.20
2023-03-21T10:25:07.072Z,8.23
2023-03-21T10:27:36.941Z,8.87
2023-03-21T10:30:07.392Z,7.40
2023-03-21T10:32:34.922Z,9.17
2023-03-21T10:35:04.941Z,8.97
2023-03-21T10:37:32.544Z,15.30
2023-03-21T10:39:59.440Z,8.00
2023-03-21T10:42:29.624Z,8.30
2023-03-21T10:44:57.578Z,7.30
2023-03-21T10:47:32.501Z,7.20
2023-03-21T10:50:12.347Z,7.30
2023-03-21T10:52:46.775Z,7.20
2023-03-21T10:55:29.825Z,7.20
2023-03-21T10:58:10.933Z,7.10
2023-03-21T11:00:41.305Z,7.53
2023-03-21T11:03:21.598Z,7.10
2023-03-21T11:05:48.967Z,6.60
2023-03-21T11:08:18.795Z,5.53
2023-03-21T11:10:55.137Z,6.50
2023-03-21T11:13:27.963Z,7.30
2023-03-21T11:16:03.613Z,6.77
2023-03-21T11:18:33.304Z,6.40
2023-03-21T11:21:06.163Z,6.17
2023-03-21T11:23:35.341Z,5.50
2023-03-21T11:26:02.851Z,6.27
2023-03-21T11:28:37.449Z,6.47
2023-03-21T11:31:05.667Z,5.83
2023-03-21T11:33:44.326Z,6.37
2023-03-21T11:36:19.610Z,5.63
2023-03-21T11:38:56.543Z,5.97
2023-03-21T11:41:28.367Z,5.37
2023-03-21T11:43:57.119Z,5.40
2023-03-21T11:46:29.443Z,6.30
2023-03-21T11:48:57.387Z,5.33
2023-03-21T11:51:54.755Z,5.83
2023-03-21T11:54:38.312Z,5.33
2023-03-21T11:57:29.616Z,5.60
2023-03-21T12:00:14.633Z,5.00
2023-03-21T12:02:55.622Z,5.20
2023-03-21T12:05:26.522Z,4.50
2023-03-21T12:07:58.937Z,5.00
2023-03-21T12:10:34.353Z,5.37
2023-03-21T12:13:19.513Z,8.57
2023-03-21T12:16:07.353Z,4.97
2023-03-21T12:18:47.733Z,5.40
2023-03-21T12:21:32.730Z,5.23
2023-03-21T12:24:17.498Z,4.70
2023-03-21T12:26:59.084Z,5.40
2023-03-21T12:29:34.807Z,5.70
2023-03-21T12:32:13.870Z,7.70
2023-03-21T12:35:15.876Z,5.53
2023-03-21T12:38:10.450Z,6.30
2023-03-21T12:40:40.896Z,5.90
2023-03-21T12:43:42.696Z,7.17
2023-03-21T12:46:31.968Z,7.10
2023-03-21T12:49:02.929Z,6.10
2023-03-21T12:51:33.911Z,5.60
2023-03-21T12:54:21.583Z,5.63
2023-03-21T12:57:08.582Z,5.60
2023-03-21T12:59:41.331Z,5.87
2023-03-21T13:02:30.087Z,5.40
2023-03-21T13:05:01.479Z,5.30
2023-03-21T13:07:33.614Z,5.37
2023-03-21T13:10:02.209Z,4.60
2023-03-21T13:12:43.224Z,4.67
2023-03-21T13:15:32.648Z,5.60
2023-03-21T13:18:14.184Z,5.93
2023-03-21T13:20:45.104Z,6.10
2023-03-21T13:23:13.507Z,4.10
2023-03-21T13:25:46.987Z,4.70
2023-03-21T13:28:28.842Z,4.97
2023-03-21T13:31:19.833Z,6.40
2023-03-21T13:33:49.459Z,5.20
2023-03-21T13:36:22.995Z,4.50
2023-03-21T13:38:52.058Z,4.70
2023-03-21T13:41:33.073Z,4.93
2023-03-21T13:44:02.498Z,4.73
2023-03-21T13:46:28.936Z,4.80
2023-03-21T13:48:59.710Z,4.20
2023-03-21T13:51:29.577Z,4.53
2023-03-21T13:54:01.229Z,4.37
2023-03-21T13:56:30.413Z,5.20
2023-03-21T13:59:02.360Z,3.90
2023-03-21T14:02:13.404Z,4.20
2023-03-21T14:04:53.635Z,3.97
2023-03-21T14:07:31.068Z,4.27
2023-03-21T14:10:06.400Z,4.40
2023-03-21T14:12:42.398Z,4.03
2023-03-21T14:15:18.711Z,3.93
2023-03-21T14:18:10.937Z,4.40
2023-03-21T14:20:56.236Z,3.57
2023-03-21T14:23:24.261Z,4.30
2023-03-21T14:25:51.415Z,4.07
2023-03-21T14:28:26.251Z,3.70
2023-03-21T14:30:56.138Z,3.90
2023-03-21T14:33:29.128Z,3.63
2023-03-21T14:35:59.280Z,3.70
2023-03-21T14:38:32.094Z,3.40
2023-03-21T14:40:58.957Z,3.83
2023-03-21T14:43:26.533Z,4.07
2023-03-21T14:45:55.844Z,4.10
2023-03-21T14:48:34.890Z,4.00
2023-03-21T14:51:04.641Z,5.20
2023-03-21T14:53:40.203Z,4.47
2023-03-21T14:56:10.798Z,4.10
2023-03-21T14:58:40.326Z,3.83
2023-03-21T15:01:13.792Z,4.33
2023-03-21T15:03:40.785Z,5.00
2023-03-21T15:06:13.819Z,3.90
2023-03-21T15:08:40.825Z,3.80
2023-03-21T15:11:12.762Z,3.97
2023-03-21T15:13:50.225Z,4.10
2023-03-21T15:16:17.560Z,4.07
2023-03-21T15:18:45.318Z,3.60
2023-03-21T15:21:27.665Z,4.53
2023-03-21T15:24:13.489Z,4.00
2023-03-21T15:26:40.590Z,4.17
2023-03-21T15:29:07.518Z,4.67
2023-03-21T15:31:40.313Z,4.00
2023-03-21T15:34:07.632Z,4.17
2023-03-21T15:36:37.721Z,4.53
2023-03-21T15:39:08.551Z,3.90
2023-03-21T15:41:35.382Z,3.83
2023-03-21T15:44:05.565Z,3.77
2023-03-21T15:46:50.443Z,4.10
2023-03-21T15:49:25.145Z,3.90
2023-03-21T15:52:02.833Z,3.53
2023-03-21T15:54:37.077Z,3.90
2023-03-21T15:57:19.835Z,3.47
2023-03-21T15:59:47.811Z,3.83
2023-03-21T16:02:23.222Z,4.17
2023-03-21T16:05:21.970Z,3.70
2023-03-21T16:07:48.746Z,5.47
2023-03-21T16:10:28.535Z,5.00
2023-03-21T16:12:55.325Z,4.00
2023-03-21T16:15:23.869Z,3.97
2023-03-21T16:17:58.578Z,4.30
2023-03-21T16:20:34.265Z,5.60
2023-03-21T16:23:01.405Z,4.70
2023-03-21T16:25:30.482Z,4.10
2023-03-21T16:27:57.290Z,4.23
2023-03-21T16:30:24.109Z,3.93
2023-03-21T16:32:51.014Z,5.83
2023-03-21T16:35:17.942Z,4.37
2023-03-21T16:37:47.037Z,4.13
2023-03-21T16:40:21.870Z,4.90
2023-03-21T16:42:48.397Z,3.93
2023-03-21T16:45:14.972Z,4.33
2023-03-21T16:47:41.523Z,4.00
2023-03-21T16:50:33.595Z,4.20
2023-03-21T16:53:00.742Z,4.30
2023-03-21T16:55:28.225Z,4.70
2023-03-21T16:57:55.700Z,4.00
2023-03-21T17:00:26.041Z,4.33
2023-03-21T17:02:54.707Z,4.43
2023-03-21T17:05:26.761Z,4.47
2023-03-21T17:07:54.682Z,5.13
2023-03-21T17:10:24.461Z,5.10
2023-03-21T17:12:51.006Z,10.93
2023-03-21T17:15:18.003Z,9.53
2023-03-21T17:17:44.877Z,4.47
2023-03-21T17:20:24.160Z,4.50
2023-03-21T17:22:50.917Z,4.30
2023-03-21T17:25:19.019Z,4.80
2023-03-21T17:27:46.312Z,4.30
2023-03-21T17:30:34.023Z,3.90
2023-03-21T17:33:00.939Z,4.53
2023-03-21T17:35:29.024Z,4.53
2023-03-21T17:37:58.458Z,4.87
2023-03-21T17:40:30.859Z,4.80
2023-03-21T17:42:59.262Z,5.53
2023-03-21T17:45:25.869Z,5.37
2023-03-21T17:47:52.730Z,4.87
2023-03-21T17:50:22.638Z,4.60
2023-03-21T17:52:50.868Z,5.70
2023-03-21T17:55:19.640Z,4.80
2023-03-21T17:57:46.970Z,5.03
2023-03-21T18:00:20.789Z,4.70
2023-03-21T18:02:47.794Z,4.50
2023-03-21T18:05:14.561Z,4.53
2023-03-21T18:10:28.582Z,5.20
2023-03-21T18:12:56.337Z,5.07
2023-03-21T18:15:31.092Z,4.70
2023-03-21T18:17:58.453Z,5.30
2023-03-21T18:20:50.305Z,5.00
2023-03-21T18:23:15.969Z,4.60
2023-03-21T18:25:43.004Z,4.37
2023-03-21T18:28:11.854Z,5.60
2023-03-21T18:31:00.225Z,5.60
2023-03-21T18:33:27.235Z,5.77
2023-03-21T18:35:59.131Z,5.37
2023-03-21T18:38:29.229Z,5.43
2023-03-21T18:40:56.294Z,5.97
2023-03-21T18:46:10.374Z,5.70
2023-03-21T18:48:37.226Z,4.23
2023-03-21T18:51:04.338Z,5.33
2023-03-21T18:53:31.955Z,5.23
2023-03-21T18:55:58.516Z,4.90
2023-03-21T18:58:25.413Z,5.00
2023-03-21T19:00:53.631Z,5.33
2023-03-21T19:03:34.117Z,6.17
2023-03-21T19:06:04.188Z,5.60
2023-03-21T19:08:31.242Z,5.93
2023-03-21T19:11:00.166Z,5.23
2023-03-21T19:13:28.300Z,5.03
2023-03-21T19:15:56.169Z,5.63
2023-03-21T19:18:53.344Z,6.53
2023-03-21T19:21:09.634Z,33.13
2023-03-21T19:24:07.914Z,16.20
2023-03-21T19:26:23.953Z,8.33
2023-03-21T19:28:50.569Z,5.80
2023-03-21T19:31:17.980Z,5.20
2023-03-21T19:33:45.028Z,5.67
2023-03-21T19:36:21.543Z,6.00
2023-03-21T19:38:48.973Z,6.10
2023-03-21T19:41:15.539Z,5.90
2023-03-21T19:43:53.124Z,5.90
2023-03-21T19:46:24.484Z,6.27
2023-03-21T19:48:51.142Z,5.10
2023-03-21T19:51:28.360Z,5.10
2023-03-21T19:53:55.794Z,5.33
2023-03-21T19:56:26.257Z,5.00
2023-03-21T19:58:53.927Z,5.90
2023-03-21T20:01:20.672Z,4.70
2023-03-21T20:03:47.322Z,4.60
2023-03-21T20:06:13.793Z,5.10
2023-03-21T20:09:13.685Z,21.40
2023-03-21T20:11:27.328Z,20.70
2023-03-21T20:13:54.224Z,7.70
2023-03-21T20:16:21.448Z,5.13
2023-03-21T20:18:48.330Z,4.37
2023-03-21T20:21:18.099Z,4.57
2023-03-21T20:23:51.035Z,5.00
2023-03-21T20:26:18.502Z,4.70
2023-03-21T20:29:00.209Z,5.20
2023-03-21T20:31:34.748Z,4.33
2023-03-21T20:34:01.607Z,5.13
2023-03-21T20:36:43.902Z,5.17
2023-03-21T20:39:11.017Z,4.40
2023-03-21T20:41:38.187Z,4.80
2023-03-21T20:46:51.733Z,7.07
2023-03-21T20:49:20.089Z,11.37
2023-03-21T20:52:47.829Z,6.40
2023-03-21T20:54:34.865Z,5.30
2023-03-21T20:57:01.598Z,5.30
2023-03-21T20:59:29.206Z,4.60
2023-03-21T21:01:57.420Z,5.53
2023-03-21T21:04:44.157Z,5.07
2023-03-21T21:07:15.912Z,5.00
2023-03-21T21:09:44.078Z,5.30
2023-03-21T21:12:11.515Z,5.30
2023-03-21T21:14:38.990Z,5.63
2023-03-21T21:17:23.153Z,5.87
2023-03-21T21:19:50.950Z,6.30
2023-03-21T21:22:17.740Z,12.03
2023-03-21T21:24:44.770Z,11.13
2023-03-21T21:27:11.914Z,7.47
2023-03-21T21:29:38.525Z,7.70
2023-03-21T21:32:05.358Z,7.73
2023-03-21T21:34:32.243Z,8.00
2023-03-21T21:37:02.047Z,8.20
2023-03-21T21:39:31.413Z,8.90
2023-03-21T21:41:57.920Z,7.57
2023-03-21T21:44:24.401Z,6.60
2023-03-21T21:46:51.369Z,4.93
2023-03-21T21:49:18.004Z,4.80
2023-03-21T21:51:47.690Z,4.40
2023-03-21T21:54:18.137Z,3.87
2023-03-21T21:56:48.380Z,4.10
2023-03-21T21:59:18.287Z,4.33
2023-03-21T22:01:46.610Z,5.00
2023-03-21T22:04:14.513Z,4.73
2023-03-21T22:06:42.258Z,5.57
2023-03-21T22:09:09.219Z,5.10
2023-03-21T22:11:36.131Z,5.60
2023-03-21T22:14:03.148Z,7.70
2023-03-21T22:16:29.836Z,6.73
2023-03-21T22:18:56.400Z,5.50
2023-03-21T22:21:23.150Z,4.67
2023-03-21T22:23:49.600Z,4.60
2023-03-21T22:26:16.299Z,3.83
2023-03-21T22:28:43.516Z,4.10
2023-03-21T22:31:13.482Z,3.77
2023-03-21T22:33:40.050Z,4.00
2023-03-21T22:36:07.008Z,4.43
2023-03-21T22:38:34.643Z,4.50
2023-03-21T22:41:04.958Z,4.20
2023-03-21T22:43:35.246Z,4.53
2023-03-21T22:46:03.122Z,4.00
2023-03-21T22:48:30.847Z,3.70
2023-03-21T22:50:59.017Z,4.10
2023-03-21T22:53:25.757Z,4.00
2023-03-21T22:55:52.299Z,4.13
2023-03-21T22:58:19.166Z,4.40
2023-03-21T23:00:45.925Z,4.57
2023-03-21T23:03:14.525Z,4.00
2023-03-21T23:05:41.704Z,4.53
2023-03-21T23:08:08.581Z,3.80
2023-03-21T23:10:38.368Z,4.17
2023-03-21T23:13:05.084Z,4.37
2023-03-21T23:15:31.610Z,4.00
2023-03-21T23:17:58.109Z,4.17
2023-03-21T23:20:24.732Z,4.47
2023-03-21T23:22:51.225Z,4.50
2023-03-21T23:25:20.457Z,4.67
2023-03-21T23:27:47.269Z,4.60
2023-03-21T23:30:13.836Z,4.47
2023-03-21T23:32:40.384Z,4.77
2023-03-21T23:35:07.596Z,4.57
2023-03-21T23:37:34.105Z,4.13
2023-03-21T23:40:00.848Z,4.60
2023-03-21T23:42:29.239Z,5.10
2023-03-21T23:44:55.789Z,4.33
2023-03-21T23:47:22.277Z,4.80
2023-03-21T23:49:49.994Z,4.30
2023-03-21T23:52:16.525Z,4.33
2023-03-21T23:54:43.179Z,5.03
2023-03-21T23:57:10.332Z,4.33
2023-03-21T23:59:36.754Z,5.13
